SLSB/SRJ METAR and TAF weather

Enter ICAO airport designator
Station Type Date Time Source
SLSB METAR 2021/01/25 23:00 UTC NOAA

SLSB 252300Z 00000KT 9999 NSC 27/24 Q1005 A2970 HR87 CI RWY NML


Station Type Date Time Source
SLSB Decoded METAR 2021/01/25 23:00 UTC NOAA

San Borja, Bolivia (SLSB) 14-52S 066-52W
Jan 25, 2021 - 06:00 PM EST / 2021.01.25 2300 UTC
Wind: Calm:0
Visibility: greater than 7 mile(s):0
Temperature: 80 F (27 C)
Dew Point: 75 F (24 C)
Relative Humidity: 83%
Pressure (altimeter): 29.7 in. Hg (1005 hPa)
ob: SLSB 252300Z 00000KT 9999 NSC 27/24 Q1005 A2970 HR87 CI RWY NML
cycle: 23

Station Type Date Time Source
SLSB TAF UTC NOAA

Error!

Example: see airport list